Time;durP1;ratioP1;P1;durP2;ratioP2;P2;SDS_P1;SDS_P2;PMS_P1;PMS_P2;Temp;Humidity;BMP_temperature;BMP_pressure;BME280_temperature;BME280_humidity;BME280_pressure;Samples;Min_cycle;Max_cycle;Signal;HPM_P1;HPM_P2
2022/11/30 00:02:22;;;;;;;12.40;6.95;;;;;;;;;;4745482;30;20040;-83
2022/11/30 00:04:47;;;;;;;12.75;6.85;;;;;;;;;;4752785;30;20413;-83
2022/11/30 00:07:12;;;;;;;12.40;7.03;;;;;;;;;;4752847;30;20516;-83
2022/11/30 00:09:38;;;;;;;12.13;7.13;;;;;;;;;;4750668;30;20139;-83
2022/11/30 00:12:03;;;;;;;11.80;6.95;;;;;;;;;;4763350;30;20031;-83
2022/11/30 00:14:29;;;;;;;12.40;7.60;;;;;;;;;;4766702;30;20112;-83
2022/11/30 00:16:54;;;;;;;11.65;6.65;;;;;;;;;;4751294;30;20474;-83
2022/11/30 00:19:19;;;;;;;12.45;7.38;;;;;;;;;;4762289;30;20028;-83
2022/11/30 00:21:45;;;;;;;11.07;6.90;;;;;;;;;;4761917;30;20032;-83
2022/11/30 00:24:10;;;;;;;13.20;7.05;;;;;;;;;;4765186;30;20056;-83
2022/11/30 00:26:36;;;;;;;11.30;6.75;;;;;;;;;;4753021;30;20126;-83
2022/11/30 00:29:01;;;;;;;12.43;7.25;;;;;;;;;;4744325;30;20032;-83
2022/11/30 00:31:26;;;;;;;11.93;7.32;;;;;;;;;;4746660;30;20170;-83
2022/11/30 00:33:52;;;;;;;13.75;7.07;;;;;;;;;;4764176;30;20036;-83
2022/11/30 00:36:23;;;;;;;11.30;6.75;;;;;;;;;;4743142;30;20031;-83
2022/11/30 00:38:50;;;;;;;12.30;6.90;;;;;;;;;;4744940;30;20612;-83
2022/11/30 00:41:17;;;;;;;10.32;6.65;;;;;;;;;;4762926;30;20048;-83
2022/11/30 00:43:43;;;;;;;9.55;6.53;;;;;;;;;;4743398;30;20100;-83
2022/11/30 00:46:09;;;;;;;15.18;7.65;;;;;;;;;;4747869;30;20031;-83
2022/11/30 00:48:36;;;;;;;10.00;5.88;;;;;;;;;;4763583;30;20036;-83
2022/11/30 00:51:01;;;;;;;10.40;6.70;;;;;;;;;;4745644;30;20127;-83
2022/11/30 00:53:27;;;;;;;10.45;6.57;;;;;;;;;;4746474;30;20120;-83
2022/11/30 00:55:52;;;;;;;10.30;6.40;;;;;;;;;;4744186;30;20039;-83
2022/11/30 00:58:18;;;;;;;10.68;6.88;;;;;;;;;;4761152;30;20047;-83
2022/11/30 01:00:44;;;;;;;10.70;6.28;;;;;;;;;;4758839;30;20028;-83
2022/11/30 01:03:10;;;;;;;8.98;5.47;;;;;;;;;;4761838;30;20040;-83
2022/11/30 01:05:37;;;;;;;10.20;6.22;;;;;;;;;;4763449;30;20095;-83
2022/11/30 01:08:04;;;;;;;11.82;6.43;;;;;;;;;;4754850;30;20570;-83
2022/11/30 01:10:29;;;;;;;9.10;5.97;;;;;;;;;;4768435;30;20032;-83
2022/11/30 01:12:55;;;;;;;10.35;6.55;;;;;;;;;;4755031;30;20512;-83
2022/11/30 01:15:21;;;;;;;14.00;7.03;;;;;;;;;;4752535;30;20035;-83
2022/11/30 01:17:46;;;;;;;11.25;6.35;;;;;;;;;;4756311;30;20444;-83
2022/11/30 01:20:12;;;;;;;11.80;6.30;;;;;;;;;;4749531;30;20136;-83
2022/11/30 01:22:37;;;;;;;12.07;6.60;;;;;;;;;;4761031;30;20083;-83
2022/11/30 01:25:03;;;;;;;10.48;6.47;;;;;;;;;;4751643;30;20173;-84
2022/11/30 01:27:28;;;;;;;11.02;6.80;;;;;;;;;;4749110;30;20048;-83
2022/11/30 01:29:54;;;;;;;11.45;6.07;;;;;;;;;;4751385;30;20043;-83
2022/11/30 01:32:19;;;;;;;9.98;6.47;;;;;;;;;;4748737;30;20480;-83
2022/11/30 01:34:44;;;;;;;8.43;5.60;;;;;;;;;;4764248;30;20362;-83
2022/11/30 01:37:10;;;;;;;9.52;6.43;;;;;;;;;;4764637;30;20066;-83
2022/11/30 01:39:35;;;;;;;10.48;6.95;;;;;;;;;;4751977;30;20509;-83
2022/11/30 01:42:01;;;;;;;10.27;6.07;;;;;;;;;;4752504;30;20039;-83
2022/11/30 01:44:26;;;;;;;9.85;6.47;;;;;;;;;;4754294;30;20059;-84
2022/11/30 01:47:04;;;;;;;10.73;5.82;;;;;;;;;;4751751;30;20379;-83
2022/11/30 01:49:33;;;;;;;10.90;6.25;;;;;;;;;;4748182;30;20579;-82
2022/11/30 01:52:13;;;;;;;11.07;6.80;;;;;;;;;;4770511;30;20070;-83
2022/11/30 01:54:57;;;;;;;10.68;6.30;;;;;;;;;;4762404;30;20050;-83
2022/11/30 01:57:33;;;;;;;10.80;6.00;;;;;;;;;;4767955;30;20505;-83
2022/11/30 02:00:01;;;;;;;9.25;6.00;;;;;;;;;;4749854;30;20499;-83
2022/11/30 02:03:00;;;;;;;11.95;6.53;;;;;;;;;;4765767;30;20566;-83
2022/11/30 02:05:26;;;;;;;12.90;6.43;;;;;;;;;;4759918;30;20048;-83
2022/11/30 02:07:52;;;;;;;9.40;6.03;;;;;;;;;;4762332;30;20582;-83
2022/11/30 02:10:25;;;;;;;10.82;6.63;;;;;;;;;;4749502;30;20032;-83
2022/11/30 02:13:35;;;;;;;10.00;6.28;;;;;;;;;;4751492;30;20063;-83
2022/11/30 02:16:22;;;;;;;10.27;6.60;;;;;;;;;;4748592;30;20031;-83
2022/11/30 02:19:06;;;;;;;9.52;6.35;;;;;;;;;;4747184;30;20031;-83
2022/11/30 02:21:44;;;;;;;8.40;5.70;;;;;;;;;;4764430;30;20484;-83
2022/11/30 02:24:34;;;;;;;10.20;6.03;;;;;;;;;;4746800;30;20023;-83
2022/11/30 02:27:33;;;;;;;9.85;5.93;;;;;;;;;;4750069;30;20032;-83
2022/11/30 02:30:09;;;;;;;9.65;5.75;;;;;;;;;;4748631;30;20038;-83
2022/11/30 02:32:50;;;;;;;8.75;5.95;;;;;;;;;;4746803;30;20036;-83
2022/11/30 02:35:19;;;;;;;9.40;6.40;;;;;;;;;;4751598;30;20034;-83
2022/11/30 02:37:45;;;;;;;10.65;6.20;;;;;;;;;;4751931;30;20067;-83
2022/11/30 02:40:13;;;;;;;9.18;5.90;;;;;;;;;;4750858;30;20051;-83
2022/11/30 02:42:39;;;;;;;8.98;5.28;;;;;;;;;;4767268;30;20513;-83
2022/11/30 02:45:06;;;;;;;8.77;5.38;;;;;;;;;;4760312;30;20035;-83
2022/11/30 02:47:50;;;;;;;9.18;6.28;;;;;;;;;;4748043;30;20532;-83
2022/11/30 02:50:15;;;;;;;9.00;6.20;;;;;;;;;;4746837;30;20036;-83
2022/11/30 02:52:41;;;;;;;9.45;6.22;;;;;;;;;;4753543;30;20512;-83
2022/11/30 02:55:10;;;;;;;9.32;5.88;;;;;;;;;;4747066;30;20036;-83
2022/11/30 02:57:43;;;;;;;9.43;6.45;;;;;;;;;;4746366;30;20663;-83
2022/11/30 03:00:10;;;;;;;9.00;6.13;;;;;;;;;;4760131;30;20416;-83
2022/11/30 03:02:37;;;;;;;10.50;6.38;;;;;;;;;;4761753;30;20173;-83
2022/11/30 03:05:03;;;;;;;9.88;6.38;;;;;;;;;;4747736;30;20513;-83
2022/11/30 03:07:29;;;;;;;9.88;6.53;;;;;;;;;;4746107;30;20577;-83
2022/11/30 03:09:54;;;;;;;9.73;6.20;;;;;;;;;;4761549;30;20076;-83
2022/11/30 03:12:20;;;;;;;9.82;6.30;;;;;;;;;;4756988;30;20032;-83
2022/11/30 03:14:46;;;;;;;10.07;6.22;;;;;;;;;;4766555;30;20242;-83
2022/11/30 03:17:11;;;;;;;10.88;6.68;;;;;;;;;;4750473;30;20855;-83
2022/11/30 03:19:37;;;;;;;11.43;6.38;;;;;;;;;;4761792;30;20622;-83
2022/11/30 03:22:02;;;;;;;10.45;6.60;;;;;;;;;;4766431;30;20440;-83
2022/11/30 03:24:28;;;;;;;10.00;6.05;;;;;;;;;;4760439;30;20054;-83
2022/11/30 03:26:54;;;;;;;10.70;6.47;;;;;;;;;;4768921;30;20039;-83
2022/11/30 03:29:19;;;;;;;10.73;6.80;;;;;;;;;;4763062;30;20050;-83
2022/11/30 03:31:44;;;;;;;9.70;6.40;;;;;;;;;;4768248;30;20035;-83
2022/11/30 03:34:10;;;;;;;8.98;5.70;;;;;;;;;;4750135;30;20571;-83
2022/11/30 03:36:35;;;;;;;10.00;6.25;;;;;;;;;;4745855;30;20032;-83
2022/11/30 03:39:01;;;;;;;9.93;6.13;;;;;;;;;;4743479;30;20394;-83
2022/11/30 03:41:26;;;;;;;9.77;6.53;;;;;;;;;;4766867;30;20028;-83
2022/11/30 03:43:52;;;;;;;10.13;6.38;;;;;;;;;;4759936;30;20035;-83
2022/11/30 03:46:17;;;;;;;10.63;6.32;;;;;;;;;;4766846;30;20485;-83
2022/11/30 03:48:43;;;;;;;9.05;5.95;;;;;;;;;;4759914;30;20562;-83
2022/11/30 03:51:10;;;;;;;8.75;5.95;;;;;;;;;;4747895;30;20044;-83
2022/11/30 03:53:36;;;;;;;9.15;6.05;;;;;;;;;;4745322;30;20028;-83
2022/11/30 03:56:04;;;;;;;10.52;6.18;;;;;;;;;;4760108;30;20500;-83
2022/11/30 03:58:29;;;;;;;9.85;6.38;;;;;;;;;;4749715;30;20038;-83
2022/11/30 04:01:07;;;;;;;8.60;6.10;;;;;;;;;;4744906;30;20406;-83
2022/11/30 04:03:33;;;;;;;9.38;5.65;;;;;;;;;;4763219;30;20031;-83
2022/11/30 04:05:59;;;;;;;9.35;5.80;;;;;;;;;;4749873;30;20059;-83
2022/11/30 04:08:26;;;;;;;9.55;6.10;;;;;;;;;;4750936;30;20043;-83
2022/11/30 04:10:53;;;;;;;11.10;6.70;;;;;;;;;;4763677;30;20035;-83
2022/11/30 04:13:20;;;;;;;8.98;5.30;;;;;;;;;;4766651;30;20615;-83
2022/11/30 04:15:47;;;;;;;10.80;5.72;;;;;;;;;;4752039;30;20035;-83
2022/11/30 04:18:13;;;;;;;9.95;6.10;;;;;;;;;;4749682;30;20804;-83
2022/11/30 04:20:39;;;;;;;10.00;5.82;;;;;;;;;;4749804;30;20031;-83
2022/11/30 04:23:05;;;;;;;10.55;6.80;;;;;;;;;;4753190;30;20394;-83
2022/11/30 04:25:30;;;;;;;9.35;6.43;;;;;;;;;;4751070;30;20036;-83
2022/11/30 04:27:55;;;;;;;9.48;6.35;;;;;;;;;;4769304;30;20490;-83
2022/11/30 04:30:21;;;;;;;9.63;6.15;;;;;;;;;;4772830;30;20031;-83
2022/11/30 04:32:46;;;;;;;9.65;5.70;;;;;;;;;;4749744;30;20098;-83
2022/11/30 04:35:12;;;;;;;8.95;6.07;;;;;;;;;;4750856;30;20042;-83
2022/11/30 04:37:37;;;;;;;8.68;6.15;;;;;;;;;;4753261;30;20043;-83
2022/11/30 04:40:04;;;;;;;10.43;5.93;;;;;;;;;;4753497;30;20035;-83
2022/11/30 04:42:29;;;;;;;10.15;5.90;;;;;;;;;;4749503;30;20658;-83
2022/11/30 04:44:54;;;;;;;10.32;6.47;;;;;;;;;;4767090;30;20093;-83
2022/11/30 04:47:20;;;;;;;13.25;6.35;;;;;;;;;;4753244;30;20126;-83
2022/11/30 04:49:45;;;;;;;9.80;5.93;;;;;;;;;;4753212;30;20071;-83
2022/11/30 04:52:11;;;;;;;9.68;6.38;;;;;;;;;;4749992;30;20035;-83
2022/11/30 04:54:36;;;;;;;9.18;6.15;;;;;;;;;;4751730;30;20039;-83
2022/11/30 04:57:01;;;;;;;10.45;6.28;;;;;;;;;;4750182;30;20039;-83
2022/11/30 04:59:27;;;;;;;10.55;6.60;;;;;;;;;;4748281;30;20039;-83
2022/11/30 05:01:53;;;;;;;9.88;6.32;;;;;;;;;;4761308;30;20155;-83
2022/11/30 05:04:18;;;;;;;10.48;6.43;;;;;;;;;;4748752;30;20393;-83
2022/11/30 05:06:44;;;;;;;10.38;6.22;;;;;;;;;;4763239;30;20048;-83
2022/11/30 05:09:09;;;;;;;12.23;6.18;;;;;;;;;;4757846;30;20097;-83
2022/11/30 05:11:34;;;;;;;9.50;5.85;;;;;;;;;;4759820;30;20492;-83
2022/11/30 05:14:00;;;;;;;9.75;6.00;;;;;;;;;;4752285;30;20031;-83
2022/11/30 05:16:25;;;;;;;9.05;5.45;;;;;;;;;;4765921;30;20031;-83
2022/11/30 05:18:50;;;;;;;7.85;5.05;;;;;;;;;;4765981;30;20043;-83
2022/11/30 05:21:16;;;;;;;8.77;5.13;;;;;;;;;;4774253;30;20058;-83
2022/11/30 05:23:42;;;;;;;7.75;4.85;;;;;;;;;;4768867;30;20040;-83
2022/11/30 05:26:08;;;;;;;8.95;5.45;;;;;;;;;;4768340;30;20043;-83
2022/11/30 05:28:34;;;;;;;8.10;5.10;;;;;;;;;;4758668;30;20028;-83
2022/11/30 05:31:04;;;;;;;8.57;5.68;;;;;;;;;;4765851;30;20054;-83
2022/11/30 05:33:29;;;;;;;8.93;5.53;;;;;;;;;;4754598;30;20482;-83
2022/11/30 05:35:54;;;;;;;8.32;5.38;;;;;;;;;;4751485;30;20093;-83
2022/11/30 05:38:20;;;;;;;9.00;5.50;;;;;;;;;;4771040;30;20031;-83
2022/11/30 05:40:45;;;;;;;8.50;5.68;;;;;;;;;;4752983;30;20140;-83
2022/11/30 05:43:11;;;;;;;10.45;6.05;;;;;;;;;;4744669;30;20040;-83
2022/11/30 05:45:37;;;;;;;10.00;6.15;;;;;;;;;;4754594;30;20458;-83
2022/11/30 05:48:02;;;;;;;11.05;6.78;;;;;;;;;;4752660;30;20039;-83
2022/11/30 05:50:28;;;;;;;11.02;6.78;;;;;;;;;;4764305;30;20039;-83
2022/11/30 05:52:55;;;;;;;9.75;6.65;;;;;;;;;;4751665;30;20040;-83
2022/11/30 05:55:22;;;;;;;10.85;6.45;;;;;;;;;;4767238;30;20032;-83
2022/11/30 05:57:47;;;;;;;11.52;6.78;;;;;;;;;;4766472;30;20036;-83
2022/11/30 06:00:13;;;;;;;9.65;5.95;;;;;;;;;;4762525;30;20037;-83
2022/11/30 06:02:39;;;;;;;9.25;6.22;;;;;;;;;;4750176;30;20032;-83
2022/11/30 06:05:04;;;;;;;12.65;6.55;;;;;;;;;;4761948;30;20578;-83
2022/11/30 06:07:30;;;;;;;11.07;6.25;;;;;;;;;;4751520;30;20031;-83
2022/11/30 06:09:55;;;;;;;10.38;6.57;;;;;;;;;;4750923;30;20257;-83
2022/11/30 06:12:21;;;;;;;9.40;6.18;;;;;;;;;;4750374;30;20028;-83
2022/11/30 06:14:46;;;;;;;9.50;6.53;;;;;;;;;;4749886;30;20039;-83
2022/11/30 06:17:11;;;;;;;9.20;6.50;;;;;;;;;;4752921;30;20100;-83
2022/11/30 06:19:37;;;;;;;9.93;5.85;;;;;;;;;;4747880;30;20039;-83
2022/11/30 06:22:02;;;;;;;9.82;6.05;;;;;;;;;;4753712;30;20027;-83
2022/11/30 06:24:28;;;;;;;9.02;6.00;;;;;;;;;;4751684;30;20038;-83
2022/11/30 06:26:53;;;;;;;11.48;6.57;;;;;;;;;;4746610;30;20089;-83
2022/11/30 06:29:19;;;;;;;10.48;6.30;;;;;;;;;;4754101;30;20070;-83
2022/11/30 06:31:44;;;;;;;9.65;6.00;;;;;;;;;;4745966;30;20400;-83
2022/11/30 06:34:09;;;;;;;9.55;6.22;;;;;;;;;;4764721;30;20034;-82
2022/11/30 06:36:35;;;;;;;10.57;6.13;;;;;;;;;;4763057;30;20039;-83
2022/11/30 06:39:00;;;;;;;10.88;6.57;;;;;;;;;;4749977;30;20039;-83
2022/11/30 06:41:26;;;;;;;10.55;6.20;;;;;;;;;;4752989;30;20531;-83
2022/11/30 06:43:51;;;;;;;11.43;6.95;;;;;;;;;;4752744;30;20063;-84
2022/11/30 06:46:16;;;;;;;12.77;5.90;;;;;;;;;;4747618;30;20044;-83
2022/11/30 06:48:42;;;;;;;9.90;5.80;;;;;;;;;;4750921;30;20401;-83
2022/11/30 06:51:09;;;;;;;10.57;5.88;;;;;;;;;;4753711;30;20036;-83
2022/11/30 06:53:35;;;;;;;10.73;6.53;;;;;;;;;;4747152;30;20038;-83
2022/11/30 06:56:08;;;;;;;11.80;6.25;;;;;;;;;;4751160;30;20109;-83
2022/11/30 06:58:34;;;;;;;11.13;6.50;;;;;;;;;;4763418;30;20684;-83
2022/11/30 07:01:00;;;;;;;10.30;6.50;;;;;;;;;;4756399;30;20466;-84
2022/11/30 07:03:25;;;;;;;11.07;6.32;;;;;;;;;;4751807;30;20046;-83
2022/11/30 07:05:51;;;;;;;11.10;6.63;;;;;;;;;;4749429;30;20511;-83
2022/11/30 07:08:16;;;;;;;8.70;5.78;;;;;;;;;;4755854;30;20487;-83
2022/11/30 07:10:44;;;;;;;9.82;5.88;;;;;;;;;;4773533;30;20116;-84
2022/11/30 07:13:15;;;;;;;8.23;5.45;;;;;;;;;;4750765;30;20066;-83
2022/11/30 07:15:41;;;;;;;9.82;5.68;;;;;;;;;;4757173;30;20036;-83
2022/11/30 07:18:07;;;;;;;9.32;5.57;;;;;;;;;;4753620;30;20402;-84
2022/11/30 07:20:33;;;;;;;8.55;5.43;;;;;;;;;;4754002;30;20028;-84
2022/11/30 07:28:27;;;;;;;7.18;4.65;;;;;;;;;;4765342;30;20042;-84
2022/11/30 07:30:53;;;;;;;7.43;4.68;;;;;;;;;;4749318;30;20044;-84
2022/11/30 07:33:18;;;;;;;7.32;4.70;;;;;;;;;;4745482;30;20040;-84
2022/11/30 07:35:43;;;;;;;7.53;5.00;;;;;;;;;;4750232;30;20031;-83
2022/11/30 07:38:09;;;;;;;6.80;4.60;;;;;;;;;;4772899;30;20135;-84
2022/11/30 07:40:34;;;;;;;8.20;5.00;;;;;;;;;;4770499;30;20027;-84
2022/11/30 07:42:59;;;;;;;7.55;4.68;;;;;;;;;;4750988;30;20126;-84
2022/11/30 07:45:25;;;;;;;7.47;4.65;;;;;;;;;;4759018;30;20105;-84
2022/11/30 07:47:50;;;;;;;9.00;5.00;;;;;;;;;;4752909;30;20038;-84
2022/11/30 07:50:16;;;;;;;9.98;5.35;;;;;;;;;;4740288;30;20550;-84
2022/11/30 07:52:41;;;;;;;7.25;4.88;;;;;;;;;;4744359;30;20038;-84
2022/11/30 07:55:08;;;;;;;8.25;5.28;;;;;;;;;;4761980;30;20092;-84
2022/11/30 07:57:33;;;;;;;8.77;5.18;;;;;;;;;;4752511;30;20717;-84
2022/11/30 07:59:58;;;;;;;8.40;5.45;;;;;;;;;;4767836;30;20679;-84
2022/11/30 08:02:24;;;;;;;8.80;5.45;;;;;;;;;;4767965;30;20499;-84
2022/11/30 08:04:49;;;;;;;8.88;5.20;;;;;;;;;;4754741;30;20063;-84
2022/11/30 08:07:15;;;;;;;7.28;5.10;;;;;;;;;;4755179;30;20521;-84
2022/11/30 08:09:40;;;;;;;7.65;5.07;;;;;;;;;;4759013;30;20037;-84
2022/11/30 08:12:06;;;;;;;9.15;5.47;;;;;;;;;;4752164;30;20038;-83
2022/11/30 08:14:31;;;;;;;8.35;5.13;;;;;;;;;;4758874;30;20093;-83
2022/11/30 08:16:57;;;;;;;8.52;4.50;;;;;;;;;;4771878;30;20047;-84
2022/11/30 08:19:22;;;;;;;6.47;4.43;;;;;;;;;;4753695;30;20074;-83
2022/11/30 08:21:48;;;;;;;6.10;3.97;;;;;;;;;;4766152;30;20456;-84
2022/11/30 08:24:13;;;;;;;5.82;3.88;;;;;;;;;;4772819;30;20084;-84
2022/11/30 08:26:39;;;;;;;7.03;4.15;;;;;;;;;;4760447;30;20039;-84
2022/11/30 08:29:05;;;;;;;5.15;3.47;;;;;;;;;;4756073;30;20035;-84
2022/11/30 08:31:33;;;;;;;6.43;3.55;;;;;;;;;;4757201;30;20456;-84
2022/11/30 08:34:01;;;;;;;6.80;4.10;;;;;;;;;;4751868;30;20390;-83
2022/11/30 08:36:28;;;;;;;5.80;4.05;;;;;;;;;;4758791;30;20031;-84
2022/11/30 08:38:56;;;;;;;5.88;4.10;;;;;;;;;;4757977;30;20066;-84
2022/11/30 08:41:21;;;;;;;4.90;3.45;;;;;;;;;;4766386;30;20401;-83
2022/11/30 08:43:50;;;;;;;6.47;3.90;;;;;;;;;;4760555;30;20039;-84
2022/11/30 08:46:19;;;;;;;6.57;3.92;;;;;;;;;;4758725;30;20470;-83
2022/11/30 08:48:45;;;;;;;6.75;4.18;;;;;;;;;;4755403;30;20040;-84
2022/11/30 08:51:13;;;;;;;5.60;3.72;;;;;;;;;;4757057;30;20043;-84
2022/11/30 08:53:38;;;;;;;7.57;4.07;;;;;;;;;;4753332;30;20166;-84
2022/11/30 08:56:13;;;;;;;6.03;3.90;;;;;;;;;;4770294;30;20045;-83
2022/11/30 08:58:41;;;;;;;8.50;4.20;;;;;;;;;;4755435;30;20075;-84
2022/11/30 09:01:19;;;;;;;5.90;4.00;;;;;;;;;;4753715;30;20154;-84
2022/11/30 09:03:47;;;;;;;7.30;4.03;;;;;;;;;;4771369;30;20035;-84
2022/11/30 09:06:15;;;;;;;7.18;4.40;;;;;;;;;;4772483;30;20090;-84
2022/11/30 09:08:43;;;;;;;7.40;4.20;;;;;;;;;;4756145;30;20040;-84
2022/11/30 09:11:15;;;;;;;7.25;4.70;;;;;;;;;;4766437;30;20036;-84
2022/11/30 09:13:42;;;;;;;7.90;4.82;;;;;;;;;;4754914;30;20068;-84
2022/11/30 09:16:09;;;;;;;8.68;4.63;;;;;;;;;;4745449;30;20036;-84
2022/11/30 09:18:34;;;;;;;8.82;5.22;;;;;;;;;;4744524;30;20055;-84
2022/11/30 09:21:02;;;;;;;8.95;5.38;;;;;;;;;;4751560;30;20067;-83
2022/11/30 09:23:28;;;;;;;9.68;5.78;;;;;;;;;;4770322;30;20032;-83
2022/11/30 09:25:58;;;;;;;9.32;5.90;;;;;;;;;;4769356;30;20044;-84
2022/11/30 09:28:24;;;;;;;10.85;6.57;;;;;;;;;;4757019;30;20521;-83
2022/11/30 09:30:49;;;;;;;12.77;7.15;;;;;;;;;;4755257;30;20038;-84
2022/11/30 09:33:15;;;;;;;11.43;7.05;;;;;;;;;;4767125;30;20040;-83
2022/11/30 09:35:40;;;;;;;12.55;6.72;;;;;;;;;;4753518;30;20046;-83
2022/11/30 09:38:06;;;;;;;9.43;6.10;;;;;;;;;;4750682;30;20185;-84
2022/11/30 09:40:35;;;;;;;10.10;6.47;;;;;;;;;;4751521;30;20040;-84
2022/11/30 09:43:03;;;;;;;10.25;6.43;;;;;;;;;;4761749;30;20109;-84
2022/11/30 09:45:31;;;;;;;12.38;7.30;;;;;;;;;;4758023;30;20040;-83
2022/11/30 09:48:17;;;;;;;12.80;7.40;;;;;;;;;;4765133;30;20401;-84
2022/11/30 09:50:46;;;;;;;12.48;7.60;;;;;;;;;;4754369;30;20044;-84
2022/11/30 09:53:19;;;;;;;16.00;8.95;;;;;;;;;;4754802;30;20040;-84
2022/11/30 09:55:44;;;;;;;;;;;;;;;;;;4757118;30;20047;-84
2022/11/30 09:58:24;;;;;;;14.15;7.85;;;;;;;;;;4762470;30;20391;-84
2022/11/30 10:00:49;;;;;;;14.88;7.80;;;;;;;;;;4753521;30;20044;-84
2022/11/30 10:03:16;;;;;;;18.38;9.40;;;;;;;;;;4758600;30;20370;-84
2022/11/30 10:05:48;;;;;;;16.65;9.63;;;;;;;;;;4762425;30;20631;-83
2022/11/30 10:08:34;;;;;;;15.43;9.13;;;;;;;;;;4772063;30;20024;-84
2022/11/30 10:11:28;;;;;;;17.92;9.45;;;;;;;;;;4752983;30;20040;-83
2022/11/30 10:14:18;;;;;;;19.13;9.95;;;;;;;;;;4759799;30;20040;-83
2022/11/30 10:16:49;;;;;;;20.33;9.57;;;;;;;;;;4766939;30;20105;-83
2022/11/30 10:19:40;;;;;;;16.33;9.77;;;;;;;;;;4755871;30;20048;-83
2022/11/30 10:22:06;;;;;;;16.77;9.65;;;;;;;;;;4739441;30;20040;-83
2022/11/30 10:24:50;;;;;;;14.77;8.68;;;;;;;;;;4758018;30;20031;-83
2022/11/30 10:27:21;;;;;;;15.45;8.65;;;;;;;;;;4750980;30;20489;-83
2022/11/30 10:29:47;;;;;;;14.90;9.35;;;;;;;;;;4755378;30;22264;-84
2022/11/30 10:32:21;;;;;;;16.45;9.20;;;;;;;;;;4750086;30;20028;-83
2022/11/30 10:34:54;;;;;;;16.80;9.80;;;;;;;;;;4764411;29;20039;-83
2022/11/30 10:37:35;;;;;;;19.50;9.75;;;;;;;;;;4752866;30;20036;-83
2022/11/30 10:40:12;;;;;;;16.15;9.68;;;;;;;;;;4761169;30;20043;-83
2022/11/30 10:43:17;;;;;;;18.95;10.32;;;;;;;;;;4754297;30;20158;-83
2022/11/30 10:45:47;;;;;;;18.88;10.75;;;;;;;;;;4718389;30;20103;-83
2022/11/30 10:48:42;;;;;;;20.60;11.27;;;;;;;;;;4740103;30;20797;-83
2022/11/30 10:51:11;;;;;;;19.45;10.68;;;;;;;;;;4756600;30;20080;-82
2022/11/30 10:53:37;;;;;;;16.80;10.05;;;;;;;;;;4767385;30;20051;-82
2022/11/30 10:56:09;;;;;;;21.15;11.75;;;;;;;;;;4777017;30;20043;-83
2022/11/30 10:58:39;;;;;;;20.45;11.10;;;;;;;;;;4764306;30;20490;-83
2022/11/30 11:01:27;;;;;;;21.63;11.38;;;;;;;;;;4745323;30;20036;-83
2022/11/30 11:04:11;;;;;;;21.40;11.40;;;;;;;;;;4764585;30;20423;-83
2022/11/30 11:07:07;;;;;;;23.05;11.95;;;;;;;;;;4753103;30;20094;-83
2022/11/30 11:09:45;;;;;;;21.00;12.05;;;;;;;;;;4737483;30;20040;-83
2022/11/30 11:12:21;;;;;;;22.13;11.68;;;;;;;;;;4763409;30;20066;-83
2022/11/30 11:14:47;;;;;;;21.45;12.23;;;;;;;;;;4749099;30;20859;-83
2022/11/30 11:17:18;;;;;;;24.30;12.68;;;;;;;;;;4754604;30;20071;-83
2022/11/30 11:19:47;;;;;;;22.48;12.82;;;;;;;;;;4746155;30;20032;-83
2022/11/30 11:22:19;;;;;;;21.13;12.25;;;;;;;;;;4757167;30;20031;-83
2022/11/30 11:24:46;;;;;;;22.20;12.02;;;;;;;;;;4751292;30;20059;-83
2022/11/30 11:27:30;;;;;;;21.60;12.18;;;;;;;;;;4750191;30;20031;-83
2022/11/30 11:30:01;;;;;;;24.20;13.15;;;;;;;;;;4748102;30;20192;-84
2022/11/30 11:32:29;;;;;;;22.13;12.68;;;;;;;;;;4768027;30;20127;-83
2022/11/30 11:34:56;;;;;;;21.77;12.50;;;;;;;;;;4741965;30;20043;-84
2022/11/30 11:37:21;;;;;;;23.63;12.95;;;;;;;;;;4749985;30;20501;-83
2022/11/30 11:40:03;;;;;;;21.58;12.00;;;;;;;;;;4748480;30;20031;-83
2022/11/30 11:42:34;;;;;;;21.67;11.35;;;;;;;;;;4763708;30;20122;-83
2022/11/30 11:45:01;;;;;;;23.27;12.98;;;;;;;;;;4760888;30;20129;-83
2022/11/30 11:47:39;;;;;;;23.52;11.85;;;;;;;;;;4768574;30;20564;-83
2022/11/30 11:50:30;;;;;;;20.45;11.50;;;;;;;;;;4768736;30;20044;-83
2022/11/30 11:53:22;;;;;;;21.08;12.20;;;;;;;;;;4761587;30;20766;-83
2022/11/30 11:55:51;;;;;;;20.10;11.55;;;;;;;;;;4764754;30;20389;-82
2022/11/30 11:58:25;;;;;;;20.30;11.07;;;;;;;;;;4754713;30;20027;-83
2022/11/30 12:00:54;;;;;;;20.98;11.55;;;;;;;;;;4751133;30;20031;-83
2022/11/30 12:03:48;;;;;;;21.33;11.85;;;;;;;;;;4750713;30;20051;-83
2022/11/30 12:06:16;;;;;;;20.38;11.32;;;;;;;;;;4750115;30;20056;-83
2022/11/30 12:08:56;;;;;;;18.23;10.73;;;;;;;;;;4762890;30;20558;-83
2022/11/30 12:11:32;;;;;;;19.05;10.90;;;;;;;;;;4748074;30;20075;-83
2022/11/30 12:13:58;;;;;;;19.05;11.48;;;;;;;;;;4752513;30;20070;-83
2022/11/30 12:16:29;;;;;;;20.08;11.27;;;;;;;;;;4768657;30;20383;-82
2022/11/30 12:19:34;;;;;;;21.00;10.98;;;;;;;;;;4756548;30;20532;-82
2022/11/30 12:22:15;;;;;;;18.83;10.82;;;;;;;;;;4710806;30;20044;-82
2022/11/30 12:25:03;;;;;;;19.80;11.27;;;;;;;;;;4748535;30;20382;-82
2022/11/30 12:27:54;;;;;;;20.05;11.18;;;;;;;;;;4751356;30;20398;-82
2022/11/30 12:30:56;;;;;;;18.52;10.40;;;;;;;;;;4753964;30;20168;-82
2022/11/30 12:33:56;;;;;;;23.60;11.43;;;;;;;;;;4731832;30;20039;-83
2022/11/30 12:36:45;;;;;;;19.08;10.82;;;;;;;;;;4752890;30;20036;-83
2022/11/30 12:40:09;;;;;;;19.13;11.18;;;;;;;;;;4737891;30;20416;-84
2022/11/30 12:42:53;;;;;;;;;;;;;;;;;;4731196;30;20448;-84
2022/11/30 12:45:31;;;;;;;;;;;;;;;;;;4750949;30;19918;-83
2022/11/30 12:48:24;;;;;;;17.55;10.00;;;;;;;;;;4765942;30;20328;-84
2022/11/30 12:50:55;;;;;;;18.55;10.77;;;;;;;;;;4757850;30;20040;-82
2022/11/30 12:53:31;;;;;;;20.85;10.45;;;;;;;;;;4747446;30;20051;-81
2022/11/30 12:56:18;;;;;;;20.15;10.70;;;;;;;;;;4751146;30;20537;-81
2022/11/30 12:58:49;;;;;;;17.70;9.75;;;;;;;;;;4751279;30;20489;-82
2022/11/30 13:01:42;;;;;;;19.60;11.32;;;;;;;;;;4770158;30;20366;-81
2022/11/30 13:04:26;;;;;;;17.15;10.20;;;;;;;;;;4757034;30;20039;-81
2022/11/30 13:07:23;;;;;;;18.10;10.73;;;;;;;;;;4751763;30;20094;-82
2022/11/30 13:10:05;;;;;;;17.70;10.10;;;;;;;;;;4757446;30;20405;-82
2022/11/30 13:12:35;;;;;;;18.17;10.95;;;;;;;;;;4753655;30;20397;-81
2022/11/30 13:15:12;;;;;;;17.00;9.35;;;;;;;;;;4759077;30;20031;-81
2022/11/30 13:17:38;;;;;;;16.55;10.10;;;;;;;;;;4753794;30;20513;-81
2022/11/30 13:20:17;;;;;;;18.52;11.20;;;;;;;;;;4772289;30;20513;-81
2022/11/30 13:23:05;;;;;;;19.05;10.98;;;;;;;;;;4765066;30;20613;-81
2022/11/30 13:26:02;;;;;;;17.83;9.85;;;;;;;;;;4768066;30;20571;-82
2022/11/30 13:28:47;;;;;;;16.58;10.30;;;;;;;;;;4751864;30;20040;-82
2022/11/30 13:31:26;;;;;;;17.02;10.48;;;;;;;;;;4753487;30;20032;-81
2022/11/30 13:33:52;;;;;;;20.42;10.82;;;;;;;;;;4764301;30;20040;-82
2022/11/30 13:36:40;;;;;;;17.05;10.52;;;;;;;;;;4755006;30;20061;-81
2022/11/30 13:39:24;;;;;;;16.67;9.25;;;;;;;;;;4745958;30;20043;-81
2022/11/30 13:41:59;;;;;;;16.70;10.02;;;;;;;;;;4768128;30;20157;-81
2022/11/30 13:44:31;;;;;;;18.00;10.02;;;;;;;;;;4752278;30;20169;-82
2022/11/30 13:46:58;;;;;;;16.50;9.27;;;;;;;;;;4752353;30;20024;-81
2022/11/30 13:49:29;;;;;;;18.38;10.50;;;;;;;;;;4750328;30;20054;-82
2022/11/30 13:51:55;;;;;;;16.05;9.63;;;;;;;;;;4760730;30;20508;-82
2022/11/30 13:54:43;;;;;;;16.63;9.52;;;;;;;;;;4775730;30;20035;-82
2022/11/30 13:57:23;;;;;;;17.08;9.85;;;;;;;;;;4766330;30;20040;-82
2022/11/30 13:59:50;;;;;;;15.57;9.32;;;;;;;;;;4765399;30;20517;-82
2022/11/30 14:02:31;;;;;;;16.65;9.43;;;;;;;;;;4752594;30;20039;-82
2022/11/30 14:05:15;;;;;;;17.33;9.93;;;;;;;;;;4761939;30;20453;-82
2022/11/30 14:08:06;;;;;;;17.17;9.13;;;;;;;;;;4771905;30;20476;-81
2022/11/30 14:10:42;;;;;;;17.38;10.40;;;;;;;;;;4726107;30;20531;-82
2022/11/30 14:13:08;;;;;;;18.65;10.85;;;;;;;;;;4771434;30;20036;-83
2022/11/30 14:15:40;;;;;;;20.00;11.00;;;;;;;;;;4758924;30;20122;-82
2022/11/30 14:18:09;;;;;;;23.15;12.45;;;;;;;;;;4761793;30;20059;-81
2022/11/30 14:20:47;;;;;;;23.63;11.70;;;;;;;;;;4753814;30;20035;-82
2022/11/30 14:23:58;;;;;;;21.35;12.10;;;;;;;;;;4759747;30;20058;-88
2022/11/30 14:26:36;;;;;;;20.75;11.07;;;;;;;;;;4756216;30;20158;-86
2022/11/30 14:29:18;;;;;;;18.38;10.85;;;;;;;;;;4772285;30;20118;-87
2022/11/30 14:31:46;;;;;;;20.52;10.93;;;;;;;;;;4754629;30;20036;-88
2022/11/30 14:34:20;;;;;;;23.52;11.40;;;;;;;;;;4767412;30;20057;-89
2022/11/30 14:36:51;;;;;;;20.90;11.15;;;;;;;;;;4769313;30;20065;-87
2022/11/30 14:39:30;;;;;;;17.15;10.27;;;;;;;;;;4766461;30;20039;-87
2022/11/30 14:41:56;;;;;;;18.35;9.95;;;;;;;;;;4756280;30;20029;-88
2022/11/30 14:44:22;;;;;;;19.00;10.65;;;;;;;;;;4748335;30;20029;-88
2022/11/30 14:46:47;;;;;;;18.70;11.05;;;;;;;;;;4749553;30;20541;-88
2022/11/30 14:49:19;;;;;;;17.20;10.65;;;;;;;;;;4750125;30;20452;-87
2022/11/30 14:51:50;;;;;;;19.00;9.80;;;;;;;;;;4758640;30;20489;-87
2022/11/30 14:54:31;;;;;;;19.48;10.70;;;;;;;;;;4766910;30;20034;-87
2022/11/30 14:57:40;;;;;;;17.00;9.57;;;;;;;;;;4750962;30;20032;-88
2022/11/30 15:00:14;;;;;;;15.82;9.43;;;;;;;;;;4751815;30;20040;-87
2022/11/30 15:02:42;;;;;;;19.98;9.02;;;;;;;;;;4754953;30;20098;-87